createdAt,value
2022-12-25T00:00:34.992Z,93.33
2022-12-25T00:01:34.987Z,93.23
2022-12-25T00:02:35.083Z,93.23
2022-12-25T00:03:35.061Z,93.12
2022-12-25T00:04:34.930Z,93.16
2022-12-25T00:05:34.922Z,93.16
2022-12-25T00:06:34.896Z,93.16
2022-12-25T00:07:34.876Z,93.16
2022-12-25T00:08:34.880Z,93.05
2022-12-25T00:09:34.879Z,93.05
2022-12-25T00:10:37.504Z,93.05
2022-12-25T00:11:35.870Z,93.05
2022-12-25T00:12:34.814Z,93.05
2022-12-25T00:13:34.825Z,93.16
2022-12-25T00:14:34.805Z,93.16
2022-12-25T00:15:34.811Z,93.16
2022-12-25T00:16:34.869Z,93.16
2022-12-25T00:17:34.767Z,93.05
2022-12-25T00:18:34.811Z,92.95
2022-12-25T00:19:34.735Z,92.95
2022-12-25T00:20:34.714Z,92.95
2022-12-25T00:21:34.704Z,92.95
2022-12-25T00:22:34.702Z,92.95
2022-12-25T00:23:34.702Z,92.85
2022-12-25T00:24:34.741Z,92.99
2022-12-25T00:25:34.663Z,92.85
2022-12-25T00:26:34.642Z,92.89
2022-12-25T00:27:34.668Z,92.89
2022-12-25T00:28:34.643Z,92.89
2022-12-25T00:29:34.607Z,92.89
2022-12-25T00:30:34.594Z,92.89
2022-12-25T00:31:34.700Z,92.99
2022-12-25T00:32:34.583Z,92.99
2022-12-25T00:33:34.590Z,92.99
2022-12-25T00:34:34.554Z,92.99
2022-12-25T00:35:34.539Z,92.99
2022-12-25T00:36:39.647Z,92.99
2022-12-25T00:37:35.508Z,92.99
2022-12-25T00:38:34.544Z,92.99
2022-12-25T00:39:34.479Z,93.10
2022-12-25T00:40:34.515Z,93.10
2022-12-25T00:41:34.483Z,93.10
2022-12-25T00:42:34.439Z,93.10
2022-12-25T00:43:34.459Z,93.10
2022-12-25T00:44:34.433Z,93.10
2022-12-25T00:45:34.443Z,93.10
2022-12-25T00:46:34.457Z,92.99
2022-12-25T00:47:34.392Z,92.99
2022-12-25T00:48:34.416Z,92.99
2022-12-25T00:49:34.370Z,92.99
2022-12-25T00:50:34.338Z,93.14
2022-12-25T00:51:34.363Z,93.04
2022-12-25T00:52:34.333Z,93.14
2022-12-25T00:53:34.334Z,93.14
2022-12-25T00:54:34.295Z,93.14
2022-12-25T00:55:34.291Z,93.24
2022-12-25T00:56:34.265Z,93.24
2022-12-25T00:57:34.304Z,93.24
2022-12-25T00:58:34.270Z,93.24
2022-12-25T00:59:34.262Z,93.24
2022-12-25T01:00:34.268Z,93.24
2022-12-25T01:01:34.244Z,93.24
2022-12-25T01:02:34.230Z,93.24
2022-12-25T01:03:34.191Z,93.24
2022-12-25T01:04:34.166Z,93.24
2022-12-25T01:05:34.143Z,93.35
2022-12-25T01:06:34.144Z,93.46
2022-12-25T01:07:34.139Z,93.46
2022-12-25T01:08:34.127Z,93.46
2022-12-25T01:09:34.112Z,93.46
2022-12-25T01:10:34.091Z,93.56
2022-12-25T01:11:34.084Z,93.56
2022-12-25T01:12:34.053Z,93.56
2022-12-25T01:13:34.062Z,93.46
2022-12-25T01:14:34.034Z,93.35
2022-12-25T01:15:34.021Z,93.35
2022-12-25T01:16:34.103Z,93.24
2022-12-25T01:17:33.999Z,93.24
2022-12-25T01:18:34.003Z,93.24
2022-12-25T01:19:33.985Z,93.24
2022-12-25T01:20:33.958Z,93.35
2022-12-25T01:21:33.953Z,93.35
2022-12-25T01:22:33.932Z,93.35
2022-12-25T01:23:33.940Z,93.40
2022-12-25T01:24:33.917Z,93.29
2022-12-25T01:25:33.939Z,93.29
2022-12-25T01:26:33.885Z,93.29
2022-12-25T01:27:33.868Z,93.18
2022-12-25T01:28:33.873Z,93.18
2022-12-25T01:29:33.870Z,93.08
2022-12-25T01:30:33.836Z,93.08
2022-12-25T01:31:33.852Z,93.08
2022-12-25T01:32:33.806Z,93.08
2022-12-25T01:33:33.825Z,92.97
2022-12-25T01:34:33.783Z,92.97
2022-12-25T01:35:33.781Z,92.97
2022-12-25T01:36:33.790Z,92.97
2022-12-25T01:37:33.789Z,92.97
2022-12-25T01:38:33.779Z,92.97
2022-12-25T01:39:33.729Z,92.97
2022-12-25T01:40:33.719Z,92.97
2022-12-25T01:41:33.728Z,92.87
2022-12-25T01:42:33.685Z,93.02
2022-12-25T01:43:33.678Z,93.02
2022-12-25T01:44:33.660Z,93.02
2022-12-25T01:45:33.739Z,93.02
2022-12-25T01:46:33.619Z,93.12
2022-12-25T01:47:33.633Z,93.12
2022-12-25T01:48:33.798Z,93.12
2022-12-25T01:49:33.582Z,93.12
2022-12-25T01:50:33.583Z,93.12
2022-12-25T01:51:33.553Z,93.23
2022-12-25T01:52:33.552Z,93.23
2022-12-25T01:53:33.592Z,93.23
2022-12-25T01:54:33.551Z,93.23
2022-12-25T01:55:33.513Z,93.33
2022-12-25T01:56:33.501Z,93.33
2022-12-25T01:57:33.486Z,93.33
2022-12-25T01:58:33.502Z,93.44
2022-12-25T01:59:33.489Z,93.44
2022-12-25T02:00:33.454Z,93.44
2022-12-25T02:01:33.528Z,93.44
2022-12-25T02:02:33.564Z,93.44
2022-12-25T02:03:33.453Z,93.44
2022-12-25T02:04:33.411Z,93.44
2022-12-25T02:05:33.405Z,93.44
2022-12-25T02:06:33.372Z,93.44
2022-12-25T02:07:33.363Z,93.48
2022-12-25T02:08:33.349Z,93.48
2022-12-25T02:09:33.348Z,93.48
2022-12-25T02:10:33.340Z,93.48
2022-12-25T02:11:33.354Z,93.48
2022-12-25T02:12:33.313Z,93.37
2022-12-25T02:13:33.326Z,93.48
2022-12-25T02:14:33.295Z,93.37
2022-12-25T02:15:33.257Z,93.37
2022-12-25T02:16:33.271Z,93.37
2022-12-25T02:17:34.238Z,93.37
2022-12-25T02:18:33.226Z,93.37
2022-12-25T02:19:33.216Z,93.37
2022-12-25T02:20:33.204Z,93.37
2022-12-25T02:21:33.203Z,93.37
2022-12-25T02:22:33.167Z,93.37
2022-12-25T02:23:33.155Z,93.37
2022-12-25T02:24:33.153Z,93.37
2022-12-25T02:25:33.136Z,93.48
2022-12-25T02:26:33.117Z,93.48
2022-12-25T02:27:33.105Z,93.48
2022-12-25T02:28:33.093Z,93.37
2022-12-25T02:29:33.109Z,93.37
2022-12-25T02:30:33.064Z,93.37
2022-12-25T02:31:33.088Z,93.37
2022-12-25T02:32:33.039Z,93.41
2022-12-25T02:33:33.024Z,93.41
2022-12-25T02:34:33.023Z,93.41
2022-12-25T02:35:33.002Z,93.41
2022-12-25T02:36:32.983Z,93.41
2022-12-25T02:37:32.972Z,93.41
2022-12-25T02:38:32.966Z,93.41
2022-12-25T02:39:32.976Z,93.41
2022-12-25T02:40:32.938Z,93.41
2022-12-25T02:41:32.923Z,93.41
2022-12-25T02:42:32.920Z,93.41
2022-12-25T02:43:32.901Z,93.41
2022-12-25T02:44:32.889Z,93.41
2022-12-25T02:45:32.913Z,93.41
2022-12-25T02:46:32.898Z,93.31
2022-12-25T02:47:32.854Z,93.31
2022-12-25T02:48:32.832Z,93.31
2022-12-25T02:49:32.839Z,93.31
2022-12-25T02:50:32.809Z,93.31
2022-12-25T02:51:32.810Z,93.31
2022-12-25T02:52:32.770Z,93.31
2022-12-25T02:53:32.775Z,93.31
2022-12-25T02:54:32.759Z,93.35
2022-12-25T02:55:32.743Z,93.21
2022-12-25T02:56:32.728Z,93.35
2022-12-25T02:57:32.719Z,93.35
2022-12-25T02:58:32.692Z,93.21
2022-12-25T02:59:32.716Z,93.25
2022-12-25T03:00:32.675Z,93.25
2022-12-25T03:01:32.764Z,93.25
2022-12-25T03:02:32.716Z,93.25
2022-12-25T03:03:32.760Z,93.25
2022-12-25T03:04:32.643Z,93.25
2022-12-25T03:05:32.624Z,93.25
2022-12-25T03:06:32.619Z,93.25
2022-12-25T03:07:32.587Z,93.25
2022-12-25T03:08:32.578Z,93.25
2022-12-25T03:09:32.594Z,93.25
2022-12-25T03:10:32.546Z,93.25
2022-12-25T03:11:32.550Z,93.25
2022-12-25T03:12:32.526Z,93.25
2022-12-25T03:13:32.516Z,93.25
2022-12-25T03:14:32.515Z,93.25
2022-12-25T03:15:32.506Z,93.25
2022-12-25T03:16:32.520Z,93.25
2022-12-25T03:17:32.471Z,93.25
2022-12-25T03:18:32.448Z,93.25
2022-12-25T03:19:32.453Z,93.25
2022-12-25T03:20:32.420Z,93.25
2022-12-25T03:21:32.401Z,93.29
2022-12-25T03:22:32.384Z,93.29
2022-12-25T03:23:32.383Z,93.29
2022-12-25T03:24:32.396Z,93.29
2022-12-25T03:25:32.363Z,93.29
2022-12-25T03:26:32.334Z,93.29
2022-12-25T03:27:32.337Z,93.29
2022-12-25T03:28:32.313Z,93.29
2022-12-25T03:29:32.328Z,93.29
2022-12-25T03:30:32.337Z,93.40
2022-12-25T03:31:32.282Z,93.40
2022-12-25T03:32:32.272Z,93.40
2022-12-25T03:33:47.172Z,93.40
2022-12-25T03:34:33.264Z,93.40
2022-12-25T03:35:33.511Z,93.40
2022-12-25T03:36:32.239Z,93.50
2022-12-25T03:37:32.218Z,93.50
2022-12-25T03:38:32.199Z,93.50
2022-12-25T03:39:32.200Z,93.61
2022-12-25T03:40:32.169Z,93.61
2022-12-25T03:41:32.151Z,93.61
2022-12-25T03:42:32.185Z,93.71
2022-12-25T03:43:32.141Z,93.71
2022-12-25T03:44:32.134Z,93.71
2022-12-25T03:45:32.109Z,93.82
2022-12-25T03:46:32.133Z,93.82
2022-12-25T03:47:32.084Z,93.92
2022-12-25T03:48:32.066Z,93.92
2022-12-25T03:49:32.061Z,93.92
2022-12-25T03:50:32.044Z,94.02
2022-12-25T03:51:32.035Z,94.02
2022-12-25T03:52:32.016Z,94.13
2022-12-25T03:53:32.014Z,94.13
2022-12-25T03:54:32.004Z,94.13
2022-12-25T03:55:32.004Z,94.13
2022-12-25T03:56:31.967Z,94.23
2022-12-25T03:57:31.946Z,94.23
2022-12-25T03:58:31.946Z,94.34
2022-12-25T03:59:31.955Z,94.34
2022-12-25T04:00:31.928Z,94.44
2022-12-25T04:01:32.067Z,94.44
2022-12-25T04:02:32.123Z,94.55
2022-12-25T04:03:31.960Z,94.65
2022-12-25T04:04:31.965Z,94.86
2022-12-25T04:05:31.861Z,95.07
2022-12-25T04:06:31.836Z,95.17
2022-12-25T04:07:31.824Z,95.28
2022-12-25T04:08:31.820Z,95.38
2022-12-25T04:09:31.814Z,95.49
2022-12-25T04:10:31.784Z,95.59
2022-12-25T04:11:31.797Z,95.70
2022-12-25T04:12:31.764Z,95.86
2022-12-25T04:13:31.746Z,95.97
2022-12-25T04:14:31.757Z,96.17
2022-12-25T04:15:31.773Z,96.28
2022-12-25T04:16:31.713Z,96.38
2022-12-25T04:17:31.700Z,96.49
2022-12-25T04:18:31.689Z,96.59
2022-12-25T04:19:31.695Z,96.70
2022-12-25T04:20:31.652Z,96.80
2022-12-25T04:21:31.641Z,96.91
2022-12-25T04:22:31.641Z,97.01
2022-12-25T04:23:31.624Z,97.11
2022-12-25T04:24:31.633Z,97.11
2022-12-25T04:25:31.601Z,97.11
2022-12-25T04:26:31.590Z,97.11
2022-12-25T04:27:31.571Z,97.11
2022-12-25T04:28:31.562Z,97.22
2022-12-25T04:29:31.571Z,97.32
2022-12-25T04:30:31.534Z,97.43
2022-12-25T04:31:31.592Z,97.43
2022-12-25T04:32:31.528Z,97.43
2022-12-25T04:33:31.501Z,97.53
2022-12-25T04:34:31.508Z,97.53
2022-12-25T04:35:31.459Z,97.59
2022-12-25T04:36:31.459Z,97.59
2022-12-25T04:37:31.436Z,97.59
2022-12-25T04:38:31.439Z,97.70
2022-12-25T04:39:31.427Z,97.70
2022-12-25T04:40:31.410Z,97.80
2022-12-25T04:41:31.391Z,97.80
2022-12-25T04:42:31.389Z,97.91
2022-12-25T04:43:31.377Z,97.91
2022-12-25T04:44:31.376Z,98.01
2022-12-25T04:45:31.337Z,98.11
2022-12-25T04:46:31.409Z,98.11
2022-12-25T04:47:31.319Z,98.11
2022-12-25T04:48:31.307Z,98.11
2022-12-25T04:49:31.306Z,98.01
2022-12-25T04:50:31.289Z,98.01
2022-12-25T04:51:31.265Z,98.11
2022-12-25T04:52:31.267Z,98.11
2022-12-25T04:53:31.244Z,98.11
2022-12-25T04:54:31.249Z,98.11
2022-12-25T04:55:31.212Z,98.11
2022-12-25T04:56:31.211Z,98.22
2022-12-25T04:57:31.185Z,98.22
2022-12-25T04:58:31.214Z,98.38
2022-12-25T04:59:31.174Z,98.49
2022-12-25T05:00:31.164Z,98.59
2022-12-25T05:01:31.260Z,98.59
2022-12-25T05:02:31.298Z,98.69
2022-12-25T05:03:31.182Z,98.69
2022-12-25T05:04:31.137Z,98.69
2022-12-25T05:05:31.102Z,98.80
2022-12-25T05:06:31.084Z,98.90
2022-12-25T05:07:31.083Z,98.90
2022-12-25T05:08:31.053Z,99.01
2022-12-25T05:09:31.051Z,99.01
2022-12-25T05:10:31.042Z,99.11
2022-12-25T05:11:31.012Z,99.11
2022-12-25T05:12:31.009Z,99.07
2022-12-25T05:13:30.989Z,99.17
2022-12-25T05:14:30.989Z,99.17
2022-12-25T05:15:30.967Z,99.17
2022-12-25T05:16:31.052Z,99.17
2022-12-25T05:17:30.932Z,99.17
2022-12-25T05:18:30.954Z,99.17
2022-12-25T05:19:30.933Z,99.17
2022-12-25T05:20:36.258Z,99.17
2022-12-25T05:21:31.899Z,99.17
2022-12-25T05:22:30.894Z,99.17
2022-12-25T05:23:30.898Z,99.27
2022-12-25T05:24:30.917Z,99.27
2022-12-25T05:25:30.856Z,99.27
2022-12-25T05:26:30.869Z,99.27
2022-12-25T05:27:30.808Z,99.38
2022-12-25T05:28:30.803Z,99.38
2022-12-25T05:29:30.823Z,99.38
2022-12-25T05:30:30.789Z,99.48
2022-12-25T05:31:30.854Z,99.44
2022-12-25T05:32:30.770Z,99.54
2022-12-25T05:33:30.753Z,99.54
2022-12-25T05:34:30.750Z,99.65
2022-12-25T05:35:30.736Z,99.65
2022-12-25T05:36:30.723Z,99.65
2022-12-25T05:37:30.709Z,99.75
2022-12-25T05:38:30.676Z,99.75
2022-12-25T05:39:30.685Z,99.85
2022-12-25T05:40:30.674Z,99.85
2022-12-25T05:41:34.204Z,99.96
2022-12-25T05:42:30.628Z,99.96
2022-12-25T05:43:30.618Z,99.96
2022-12-25T05:44:30.630Z,99.96
2022-12-25T05:45:30.582Z,99.99
2022-12-25T05:46:30.666Z,99.99
2022-12-25T05:47:30.556Z,99.99
2022-12-25T05:48:30.561Z,99.99
2022-12-25T05:49:30.546Z,99.99
2022-12-25T05:50:30.540Z,99.99
2022-12-25T05:51:30.547Z,99.99
2022-12-25T05:52:30.494Z,99.99
2022-12-25T05:53:30.474Z,99.99
2022-12-25T05:54:30.472Z,99.99
2022-12-25T05:55:30.474Z,99.99
2022-12-25T05:56:30.443Z,99.99
2022-12-25T05:57:30.436Z,99.99
2022-12-25T05:58:30.414Z,99.99
2022-12-25T05:59:30.402Z,99.99
2022-12-25T06:00:30.424Z,99.99
2022-12-25T06:01:30.590Z,99.99
2022-12-25T06:02:30.591Z,99.99
2022-12-25T06:03:30.418Z,99.99
2022-12-25T06:04:30.342Z,99.99
2022-12-25T06:05:30.343Z,99.99
2022-12-25T06:06:30.316Z,99.99
2022-12-25T06:07:30.300Z,99.99
2022-12-25T06:08:30.315Z,99.99
2022-12-25T06:09:30.274Z,99.99
2022-12-25T06:10:30.278Z,99.99
2022-12-25T06:11:30.253Z,99.99
2022-12-25T06:12:30.231Z,99.99
2022-12-25T06:13:30.218Z,99.99
2022-12-25T06:14:30.211Z,99.99
2022-12-25T06:15:30.206Z,99.99
2022-12-25T06:16:37.268Z,99.99
2022-12-25T06:17:31.168Z,99.99
2022-12-25T06:18:30.169Z,99.99
2022-12-25T06:19:30.146Z,99.99
2022-12-25T06:20:30.169Z,99.99
2022-12-25T06:21:30.116Z,99.99
2022-12-25T06:22:30.133Z,99.99
2022-12-25T06:23:30.141Z,99.99
2022-12-25T06:24:30.084Z,99.99
2022-12-25T06:25:30.082Z,99.99
2022-12-25T06:26:30.074Z,99.99
2022-12-25T06:27:30.043Z,99.99
2022-12-25T06:28:30.040Z,99.99
2022-12-25T06:29:30.017Z,99.99
2022-12-25T06:30:30.036Z,99.99
2022-12-25T06:31:30.004Z,99.99
2022-12-25T06:32:29.975Z,99.99
2022-12-25T06:33:29.956Z,99.99
2022-12-25T06:34:29.959Z,99.99
2022-12-25T06:35:29.964Z,99.99
2022-12-25T06:36:29.934Z,99.99
2022-12-25T06:37:29.905Z,99.99
2022-12-25T06:38:29.903Z,99.99
2022-12-25T06:39:29.885Z,99.99
2022-12-25T06:40:29.883Z,99.99
2022-12-25T06:41:29.853Z,99.99
2022-12-25T06:42:29.852Z,99.99
2022-12-25T06:43:29.870Z,99.99
2022-12-25T06:44:29.828Z,99.99
2022-12-25T06:45:29.848Z,99.99
2022-12-25T06:46:29.812Z,99.99
2022-12-25T06:47:29.792Z,99.99
2022-12-25T06:48:29.776Z,99.99
2022-12-25T06:49:29.757Z,99.99
2022-12-25T06:50:29.760Z,99.99
2022-12-25T06:51:29.747Z,99.99
2022-12-25T06:52:29.713Z,99.99
2022-12-25T06:53:35.245Z,99.99
2022-12-25T06:54:30.689Z,99.99
2022-12-25T06:55:29.700Z,99.99
2022-12-25T06:56:29.668Z,99.99
2022-12-25T06:57:29.651Z,99.99
2022-12-25T06:58:29.639Z,99.99
2022-12-25T06:59:29.625Z,99.99
2022-12-25T07:00:29.753Z,99.99
2022-12-25T07:01:29.709Z,99.99
2022-12-25T07:02:29.674Z,99.99
2022-12-25T07:03:29.649Z,99.99
2022-12-25T07:04:29.560Z,99.99
2022-12-25T07:05:29.564Z,99.99
2022-12-25T07:06:29.528Z,99.99
2022-12-25T07:07:29.527Z,99.99
2022-12-25T07:08:29.509Z,99.99
2022-12-25T07:09:29.487Z,99.99
2022-12-25T07:10:29.556Z,99.99
2022-12-25T07:11:29.460Z,99.99
2022-12-25T07:12:29.470Z,99.99
2022-12-25T07:13:29.442Z,99.99
2022-12-25T07:14:29.434Z,99.99
2022-12-25T07:15:29.425Z,99.99
2022-12-25T07:16:29.527Z,99.99
2022-12-25T07:17:29.394Z,99.99
2022-12-25T07:18:29.419Z,99.99
2022-12-25T07:19:29.384Z,99.99
2022-12-25T07:20:29.396Z,99.99
2022-12-25T07:21:29.346Z,99.99
2022-12-25T07:22:29.324Z,99.99
2022-12-25T07:23:29.319Z,99.99
2022-12-25T07:24:29.308Z,99.99
2022-12-25T07:25:35.268Z,99.99
2022-12-25T07:26:30.283Z,99.99
2022-12-25T07:27:29.296Z,99.99
2022-12-25T07:28:29.254Z,99.99
2022-12-25T07:29:29.231Z,99.99
2022-12-25T07:30:29.327Z,99.99
2022-12-25T07:31:29.268Z,99.99
2022-12-25T07:32:29.207Z,99.99
2022-12-25T07:33:29.193Z,99.99
2022-12-25T07:34:29.223Z,99.99
2022-12-25T07:35:29.171Z,99.99
2022-12-25T07:36:29.147Z,99.99
2022-12-25T07:37:29.130Z,99.99
2022-12-25T07:38:29.120Z,99.99
2022-12-25T07:39:29.100Z,99.99
2022-12-25T07:40:29.101Z,99.99
2022-12-25T07:41:29.074Z,99.99
2022-12-25T07:42:29.075Z,99.99
2022-12-25T07:43:29.052Z,99.99
2022-12-25T07:44:29.062Z,99.99
2022-12-25T07:45:29.079Z,99.99
2022-12-25T07:46:29.104Z,99.99
2022-12-25T07:47:28.995Z,99.99
2022-12-25T07:48:29.015Z,99.99
2022-12-25T07:49:29.009Z,99.99
2022-12-25T07:50:28.991Z,99.99
2022-12-25T07:51:28.959Z,99.99
2022-12-25T07:52:28.948Z,99.99
2022-12-25T07:53:28.920Z,99.99
2022-12-25T07:54:28.946Z,99.99
2022-12-25T07:55:28.937Z,99.99
2022-12-25T07:56:28.895Z,99.99
2022-12-25T07:57:28.882Z,99.99
2022-12-25T07:58:28.887Z,99.99
2022-12-25T07:59:28.863Z,99.99
2022-12-25T08:00:28.850Z,99.99
2022-12-25T08:01:28.992Z,99.99
2022-12-25T08:02:29.197Z,99.99
2022-12-25T08:03:29.067Z,99.99
2022-12-25T08:04:28.806Z,99.99
2022-12-25T08:05:28.794Z,99.99
2022-12-25T08:06:28.756Z,99.99
2022-12-25T08:07:28.754Z,99.99
2022-12-25T08:08:28.755Z,99.99
2022-12-25T08:09:28.733Z,99.99
2022-12-25T08:10:28.725Z,99.99
2022-12-25T08:11:28.708Z,99.99
2022-12-25T08:12:28.687Z,99.99
2022-12-25T08:13:28.684Z,99.99
2022-12-25T08:14:28.673Z,99.99
2022-12-25T08:15:28.670Z,99.99
2022-12-25T08:16:28.694Z,99.99
2022-12-25T08:17:28.616Z,99.99
2022-12-25T08:18:30.332Z,99.99
2022-12-25T08:19:28.598Z,99.99
2022-12-25T08:20:28.593Z,99.99
2022-12-25T08:21:28.562Z,99.99
2022-12-25T08:22:28.584Z,99.99
2022-12-25T08:23:28.666Z,99.99
2022-12-25T08:24:28.602Z,99.99
2022-12-25T08:25:28.520Z,99.99
2022-12-25T08:26:28.522Z,99.99
2022-12-25T08:27:28.488Z,99.99
2022-12-25T08:28:28.502Z,99.99
2022-12-25T08:29:28.500Z,99.99
2022-12-25T08:30:28.541Z,99.99
2022-12-25T08:31:28.559Z,99.99
2022-12-25T08:32:28.449Z,99.99
2022-12-25T08:33:28.431Z,99.99
2022-12-25T08:34:28.398Z,99.99
2022-12-25T08:35:28.418Z,99.99
2022-12-25T08:36:28.399Z,99.99
2022-12-25T08:37:28.372Z,99.99
2022-12-25T08:38:28.361Z,99.99
2022-12-25T08:39:28.353Z,99.99
2022-12-25T08:40:28.347Z,99.99
2022-12-25T08:41:28.327Z,99.99
2022-12-25T08:42:28.301Z,99.99
2022-12-25T08:43:28.290Z,99.99
2022-12-25T08:44:28.378Z,99.99
2022-12-25T08:45:34.522Z,99.99
2022-12-25T08:46:29.331Z,99.99
2022-12-25T08:47:28.244Z,99.99
2022-12-25T08:48:28.232Z,99.99
2022-12-25T08:49:28.230Z,99.99
2022-12-25T08:50:28.189Z,99.99
2022-12-25T08:51:28.354Z,99.99
2022-12-25T08:52:28.183Z,99.99
2022-12-25T08:53:28.248Z,99.99
2022-12-25T08:54:28.150Z,99.99
2022-12-25T08:55:28.140Z,99.99
2022-12-25T08:56:28.155Z,99.99
2022-12-25T08:57:28.116Z,99.99
2022-12-25T08:58:28.186Z,99.99
2022-12-25T08:59:28.077Z,99.99
2022-12-25T09:00:28.060Z,99.99
2022-12-25T09:01:28.153Z,99.99
2022-12-25T09:02:28.211Z,99.99
2022-12-25T09:03:28.127Z,99.99
2022-12-25T09:04:28.015Z,99.99
2022-12-25T09:05:28.022Z,99.99
2022-12-25T09:06:27.995Z,99.99
2022-12-25T09:07:27.982Z,99.99
2022-12-25T09:08:27.968Z,99.99
2022-12-25T09:09:27.957Z,99.99
2022-12-25T09:10:27.981Z,99.99
2022-12-25T09:11:27.982Z,99.99
2022-12-25T09:12:27.906Z,99.99
2022-12-25T09:13:27.895Z,99.99
2022-12-25T09:14:27.887Z,99.99
2022-12-25T09:15:27.912Z,99.99
2022-12-25T09:16:27.993Z,99.99
2022-12-25T09:17:27.857Z,99.99
2022-12-25T09:18:27.833Z,99.99
2022-12-25T09:19:27.846Z,99.99
2022-12-25T09:20:27.800Z,99.99
2022-12-25T09:21:27.807Z,99.99
2022-12-25T09:22:27.797Z,99.99
2022-12-25T09:23:27.784Z,99.99
2022-12-25T09:24:27.762Z,99.99
2022-12-25T09:25:27.780Z,99.99
2022-12-25T09:26:27.764Z,99.99
2022-12-25T09:27:27.731Z,99.99
2022-12-25T09:28:27.716Z,99.99
2022-12-25T09:29:27.809Z,99.99
2022-12-25T09:30:27.681Z,99.99
2022-12-25T09:31:27.681Z,99.99
2022-12-25T09:32:27.658Z,99.99
2022-12-25T09:33:27.678Z,99.99
2022-12-25T09:34:27.624Z,99.99
2022-12-25T09:35:27.641Z,99.99
2022-12-25T09:36:27.613Z,99.99
2022-12-25T09:37:27.591Z,99.99
2022-12-25T09:38:27.570Z,99.99
2022-12-25T09:39:27.570Z,99.99
2022-12-25T09:40:27.550Z,99.99
2022-12-25T09:41:27.558Z,99.99
2022-12-25T09:42:27.530Z,99.99
2022-12-25T09:43:27.510Z,99.99
2022-12-25T09:44:27.508Z,99.99
2022-12-25T09:45:27.501Z,99.99
2022-12-25T09:46:34.755Z,99.99
2022-12-25T09:47:28.463Z,99.99
2022-12-25T09:48:27.449Z,99.99
2022-12-25T09:49:27.430Z,99.99
2022-12-25T09:50:27.430Z,99.99
2022-12-25T09:51:27.431Z,99.99
2022-12-25T09:52:27.409Z,99.99
2022-12-25T09:53:27.425Z,99.99
2022-12-25T09:54:27.374Z,99.99
2022-12-25T09:55:27.382Z,99.99
2022-12-25T09:56:27.371Z,99.99
2022-12-25T09:57:27.339Z,99.99
2022-12-25T09:58:27.336Z,99.99
2022-12-25T09:59:27.349Z,99.99
2022-12-25T10:00:27.289Z,99.99
2022-12-25T10:01:27.397Z,99.99
2022-12-25T10:02:27.438Z,99.99
2022-12-25T10:03:27.319Z,99.99
2022-12-25T10:04:27.238Z,99.99
2022-12-25T10:05:27.237Z,99.99
2022-12-25T10:06:27.237Z,99.99
2022-12-25T10:07:27.218Z,99.99
2022-12-25T10:08:27.209Z,99.99
2022-12-25T10:09:27.177Z,99.99
2022-12-25T10:10:27.173Z,99.99
2022-12-25T10:11:27.316Z,99.99
2022-12-25T10:12:27.293Z,99.99
2022-12-25T10:13:27.275Z,99.99
2022-12-25T10:14:27.157Z,99.99
2022-12-25T10:15:27.125Z,99.99
2022-12-25T10:16:27.230Z,99.99
2022-12-25T10:17:27.091Z,99.99
2022-12-25T10:18:27.097Z,99.99
2022-12-25T10:19:27.118Z,99.99
2022-12-25T10:20:27.078Z,99.99
2022-12-25T10:21:27.055Z,99.99
2022-12-25T10:22:27.024Z,99.99
2022-12-25T10:23:27.056Z,99.99
2022-12-25T10:24:27.046Z,99.99
2022-12-25T10:25:26.995Z,99.99
2022-12-25T10:26:26.998Z,99.99
2022-12-25T10:27:26.971Z,99.99
2022-12-25T10:28:26.935Z,99.99
2022-12-25T10:29:26.941Z,99.99
2022-12-25T10:30:26.912Z,99.99
2022-12-25T10:31:27.005Z,99.99
2022-12-25T10:32:26.884Z,99.99
2022-12-25T10:33:26.881Z,99.99
2022-12-25T10:34:26.862Z,99.99
2022-12-25T10:35:26.890Z,99.99
2022-12-25T10:36:26.861Z,99.99
2022-12-25T10:37:26.856Z,99.99
2022-12-25T10:38:26.812Z,99.99
2022-12-25T10:39:26.846Z,99.99
2022-12-25T10:40:26.800Z,99.99
2022-12-25T10:41:26.831Z,99.99
2022-12-25T10:42:26.776Z,99.99
2022-12-25T10:43:26.790Z,99.99
2022-12-25T10:44:26.774Z,99.99
2022-12-25T10:45:26.734Z,99.99
2022-12-25T10:46:26.817Z,99.99
2022-12-25T10:47:26.728Z,99.99
2022-12-25T10:48:26.708Z,99.99
2022-12-25T10:49:26.712Z,99.99
2022-12-25T10:50:26.707Z,99.99
2022-12-25T10:51:26.671Z,99.99
2022-12-25T10:52:26.627Z,99.99
2022-12-25T10:53:26.656Z,99.99
2022-12-25T10:54:26.612Z,99.99
2022-12-25T10:55:29.053Z,99.99
2022-12-25T10:56:26.609Z,99.99
2022-12-25T10:57:26.579Z,99.99
2022-12-25T10:58:26.579Z,99.99
2022-12-25T10:59:26.547Z,99.99
2022-12-25T11:00:26.542Z,99.88
2022-12-25T11:01:26.696Z,99.88
2022-12-25T11:02:26.698Z,99.88
2022-12-25T11:03:26.630Z,99.88
2022-12-25T11:04:26.491Z,99.84
2022-12-25T11:05:26.478Z,99.84
2022-12-25T11:06:26.464Z,99.84
2022-12-25T11:07:26.451Z,99.84
2022-12-25T11:08:26.434Z,99.84
2022-12-25T11:09:26.421Z,99.84
2022-12-25T11:10:26.414Z,99.94
2022-12-25T11:11:26.409Z,99.84
2022-12-25T11:12:26.380Z,99.84
2022-12-25T11:13:26.366Z,99.94
2022-12-25T11:14:26.346Z,99.79
2022-12-25T11:15:26.383Z,99.79
2022-12-25T11:16:26.396Z,99.79
2022-12-25T11:17:26.307Z,99.79
2022-12-25T11:18:26.304Z,99.79
2022-12-25T11:19:26.304Z,99.79
2022-12-25T11:20:26.296Z,99.79
2022-12-25T11:21:26.279Z,99.79
2022-12-25T11:22:26.235Z,99.79
2022-12-25T11:23:26.299Z,99.79
2022-12-25T11:24:26.233Z,99.79
2022-12-25T11:25:26.212Z,99.79
2022-12-25T11:26:26.207Z,99.79
2022-12-25T11:27:26.186Z,99.69
2022-12-25T11:28:26.190Z,99.69
2022-12-25T11:29:26.168Z,99.69
2022-12-25T11:30:26.194Z,99.69
2022-12-25T11:31:26.193Z,99.69
2022-12-25T11:32:26.129Z,99.69
2022-12-25T11:33:26.104Z,99.69
2022-12-25T11:34:26.082Z,99.69
2022-12-25T11:35:26.082Z,99.69
2022-12-25T11:36:26.445Z,99.69
2022-12-25T11:37:26.075Z,99.69
2022-12-25T11:38:26.041Z,99.69
2022-12-25T11:39:26.024Z,99.69
2022-12-25T11:40:26.016Z,99.69
2022-12-25T11:41:25.996Z,99.69
2022-12-25T11:42:26.003Z,99.69
2022-12-25T11:43:25.973Z,99.64
2022-12-25T11:44:25.955Z,99.64
2022-12-25T11:45:25.970Z,99.64
2022-12-25T11:46:26.021Z,99.64
2022-12-25T11:47:25.961Z,99.64
2022-12-25T11:48:25.933Z,99.64
2022-12-25T11:49:25.905Z,99.64
2022-12-25T11:50:25.889Z,99.64
2022-12-25T11:51:25.873Z,99.64
2022-12-25T11:52:25.874Z,99.64
2022-12-25T11:53:25.844Z,99.60
2022-12-25T11:54:25.830Z,99.60
2022-12-25T11:55:25.814Z,99.70
2022-12-25T11:56:25.809Z,99.70
2022-12-25T11:57:25.803Z,99.70
2022-12-25T11:58:25.776Z,99.70
2022-12-25T11:59:25.775Z,99.80
2022-12-25T12:00:25.765Z,99.76
2022-12-25T12:01:25.801Z,99.76
2022-12-25T12:02:25.873Z,99.76
2022-12-25T12:03:25.836Z,99.86
2022-12-25T12:04:29.985Z,99.86
2022-12-25T12:05:26.720Z,99.86
2022-12-25T12:06:25.708Z,99.86
2022-12-25T12:07:25.733Z,99.86
2022-12-25T12:08:25.658Z,99.96
2022-12-25T12:09:25.686Z,99.96
2022-12-25T12:10:25.636Z,99.96
2022-12-25T12:11:25.599Z,99.96
2022-12-25T12:12:25.624Z,99.99
2022-12-25T12:13:25.577Z,99.99
2022-12-25T12:14:25.588Z,99.99
2022-12-25T12:15:25.613Z,99.99
2022-12-25T12:16:25.586Z,99.99
2022-12-25T12:17:25.561Z,99.99
2022-12-25T12:18:25.563Z,99.99
2022-12-25T12:19:25.510Z,99.99
2022-12-25T12:20:25.486Z,99.99
2022-12-25T12:21:25.475Z,99.99
2022-12-25T12:22:25.501Z,99.99
2022-12-25T12:23:25.441Z,99.99
2022-12-25T12:24:25.434Z,99.99
2022-12-25T12:25:25.420Z,99.99
2022-12-25T12:26:25.408Z,99.99
2022-12-25T12:27:25.435Z,99.99
2022-12-25T12:28:25.399Z,99.99
2022-12-25T12:29:25.403Z,99.99
2022-12-25T12:30:25.364Z,99.99
2022-12-25T12:31:25.380Z,99.99
2022-12-25T12:32:25.348Z,99.99
2022-12-25T12:33:25.297Z,99.99
2022-12-25T12:34:25.325Z,99.99
2022-12-25T12:35:25.288Z,99.99
2022-12-25T12:36:35.219Z,99.99
2022-12-25T12:37:26.270Z,99.99
2022-12-25T12:38:25.250Z,99.99
2022-12-25T12:39:25.228Z,99.99
2022-12-25T12:40:25.227Z,99.99
2022-12-25T12:41:25.210Z,99.99
2022-12-25T12:42:25.205Z,99.99
2022-12-25T12:43:25.183Z,99.99
2022-12-25T12:44:25.185Z,99.99
2022-12-25T12:45:25.210Z,99.99
2022-12-25T12:46:30.576Z,99.99
2022-12-25T12:47:26.135Z,99.99
2022-12-25T12:48:25.113Z,99.99
2022-12-25T12:49:25.104Z,99.99
2022-12-25T12:50:25.108Z,99.99
2022-12-25T12:51:25.073Z,99.99
2022-12-25T12:52:25.129Z,99.99